Time;durP1;ratioP1;P1;durP2;ratioP2;P2;SDS_P1;SDS_P2;PMS_P1;PMS_P2;Temp;Humidity;BMP_temperature;BMP_pressure;BME280_temperature;BME280_humidity;BME280_pressure;Samples;Min_cycle;Max_cycle;Signal;HPM_P1;HPM_P2
2021/06/13 00:00:01;;;;;;;4.93;2.28;;;;;;;17.71;51.62;101771.91;4428966;32;20352;-74
2021/06/13 00:02:27;;;;;;;3.47;1.80;;;;;;;17.68;51.74;101776.44;4426748;32;20124;-74
2021/06/13 00:04:53;;;;;;;7.70;2.03;;;;;;;17.70;51.66;101776.78;4430459;32;20049;-74
2021/06/13 00:07:18;;;;;;;10.15;2.37;;;;;;;17.66;51.85;101784.69;4427843;32;20017;-74
2021/06/13 00:09:44;;;;;;;3.05;2.00;;;;;;;17.63;52.02;101782.75;4428099;32;20121;-74
2021/06/13 00:12:11;;;;;;;4.68;1.90;;;;;;;17.71;51.82;101778.38;4429689;32;20045;-74
2021/06/13 00:14:37;;;;;;;3.42;1.90;;;;;;;17.64;52.06;101775.78;4430049;32;20087;-75
2021/06/13 00:17:03;;;;;;;7.07;2.47;;;;;;;17.60;52.25;101775.13;4429275;32;20109;-74
2021/06/13 00:19:29;;;;;;;6.65;2.85;;;;;;;17.60;52.28;101771.47;4428169;32;20474;-75
2021/06/13 00:21:55;;;;;;;4.65;1.98;;;;;;;17.56;52.42;101768.78;4427110;32;20098;-74
2021/06/13 00:24:22;;;;;;;3.53;1.75;;;;;;;17.57;52.45;101776.06;4430215;32;20080;-74
2021/06/13 00:26:48;;;;;;;5.18;1.85;;;;;;;17.53;52.63;101772.56;4430338;32;20448;-74
2021/06/13 00:29:14;;;;;;;4.22;1.77;;;;;;;17.62;52.41;101777.53;4428618;32;20092;-74
2021/06/13 00:31:40;;;;;;;4.75;1.65;;;;;;;17.63;52.40;101777.06;4428484;32;20024;-74
2021/06/13 00:34:05;;;;;;;5.70;2.08;;;;;;;17.61;52.60;101773.06;4427903;32;20137;-75
2021/06/13 00:36:31;;;;;;;4.00;1.80;;;;;;;17.65;52.54;101776.59;4428848;32;20037;-73
2021/06/13 00:38:57;;;;;;;7.03;2.12;;;;;;;17.66;52.78;101776.13;4428848;32;20094;-74
2021/06/13 00:41:24;;;;;;;5.53;1.80;;;;;;;17.66;52.74;101767.59;4429320;32;20037;-74
2021/06/13 00:43:50;;;;;;;5.43;1.60;;;;;;;17.66;52.73;101773.28;4429495;32;20111;-74
2021/06/13 00:46:17;;;;;;;7.00;2.40;;;;;;;17.66;52.79;101769.63;4429690;32;20614;-74
2021/06/13 00:48:43;;;;;;;4.60;1.80;;;;;;;17.69;52.80;101769.50;4428260;32;20412;-74
2021/06/13 00:51:09;;;;;;;3.95;1.60;;;;;;;17.60;53.10;101763.75;4414790;32;20122;-74
2021/06/13 00:53:35;;;;;;;4.97;1.65;;;;;;;17.64;53.11;101763.59;4428817;32;20056;-74
2021/06/13 00:56:01;;;;;;;3.80;1.33;;;;;;;17.73;52.83;101761.63;4428091;32;20081;-74
2021/06/13 00:58:27;;;;;;;5.00;1.50;;;;;;;17.67;52.99;101759.81;4430196;32;20097;-74
2021/06/13 01:00:53;;;;;;;3.92;2.03;;;;;;;17.70;52.98;101756.06;4428899;32;20114;-74
2021/06/13 01:03:20;;;;;;;2.10;1.50;;;;;;;17.72;52.86;101756.41;4427295;32;20093;-74
2021/06/13 01:05:46;;;;;;;1.75;1.45;;;;;;;17.65;53.11;101754.59;4427519;32;20164;-75
2021/06/13 01:16:29;;;;;;;9.05;1.65;;;;;;;18.02;52.76;101761.34;4442093;31;701893;-74
2021/06/13 01:19:02;;;;;;;6.10;1.67;;;;;;;18.02;52.76;101761.34;4457346;32;20402;-74
2021/06/13 01:21:34;;;;;;;6.47;1.30;;;;;;;17.61;53.42;101753.94;4456468;32;20058;-73
2021/06/13 01:24:21;;;;;;;3.55;1.90;;;;;;;17.60;53.52;101755.22;4456507;32;20032;-74
2021/06/13 01:29:28;;;;;;;6.15;1.58;;;;;;;17.60;54.05;101751.56;4430504;31;748576;-75
2021/06/13 01:31:58;;;;;;;5.70;1.62;;;;;;;17.52;54.19;101747.41;4454237;32;20063;-73
2021/06/13 01:34:29;;;;;;;3.03;1.42;;;;;;;17.52;54.15;101753.88;4455716;32;20029;-72
2021/06/13 01:36:56;;;;;;;4.47;1.77;;;;;;;17.51;54.12;101746.59;4457040;32;20041;-73
2021/06/13 01:39:27;;;;;;;6.18;2.12;;;;;;;17.48;54.43;101747.50;4453213;32;20133;-73
2021/06/13 01:41:57;;;;;;;4.60;1.77;;;;;;;17.37;54.97;101743.44;4453294;32;20069;-73
2021/06/13 01:44:24;;;;;;;7.37;2.17;;;;;;;17.39;55.00;101747.41;4456007;32;20029;-73
2021/06/13 01:46:51;;;;;;;4.35;1.75;;;;;;;17.38;55.23;101745.81;4448545;32;20124;-73
2021/06/13 01:49:18;;;;;;;5.60;2.10;;;;;;;17.36;55.29;101739.78;4453214;32;20092;-73
2021/06/13 01:51:45;;;;;;;4.72;1.60;;;;;;;17.37;55.36;101743.44;4451481;32;20055;-73
2021/06/13 01:54:12;;;;;;;3.25;1.77;;;;;;;17.28;55.71;101737.66;4456400;32;20129;-73
2021/06/13 01:56:42;;;;;;;6.32;1.85;;;;;;;17.29;55.69;101742.09;4454920;32;20045;-73
2021/06/13 01:59:09;;;;;;;4.55;1.65;;;;;;;17.23;55.98;101741.91;4454932;32;20102;-74
2021/06/13 02:01:36;;;;;;;4.15;1.50;;;;;;;17.33;55.79;101745.59;4446543;32;20108;-73
2021/06/13 02:04:04;;;;;;;4.45;2.00;;;;;;;17.27;56.11;101745.41;4439945;32;20501;-73
2021/06/13 02:06:32;;;;;;;4.47;1.70;;;;;;;17.21;56.26;101752.16;4438553;32;20072;-74
2021/06/13 02:09:00;;;;;;;6.35;1.52;;;;;;;17.16;56.57;101750.69;4436363;32;20213;-73
2021/06/13 02:11:28;;;;;;;4.60;1.52;;;;;;;17.16;56.59;101747.84;4435987;32;20077;-74
2021/06/13 02:13:55;;;;;;;6.10;1.80;;;;;;;17.14;56.73;101749.53;4442154;32;20069;-73
2021/06/13 02:16:21;;;;;;;2.85;1.50;;;;;;;17.16;56.83;101745.00;4439846;32;20050;-73
2021/06/13 02:18:49;;;;;;;7.03;1.73;;;;;;;17.11;57.23;101742.72;4438453;32;20049;-73
2021/06/13 02:21:17;;;;;;;6.35;1.80;;;;;;;17.15;57.25;101743.38;4437642;32;20025;-73
2021/06/13 02:23:43;;;;;;;3.65;1.77;;;;;;;17.14;57.26;101741.81;4437588;32;20081;-74
2021/06/13 02:26:13;;;;;;;3.58;1.50;;;;;;;16.96;58.03;101733.09;4439239;32;20065;-73
2021/06/13 02:28:43;;;;;;;5.07;1.65;;;;;;;17.06;57.77;101737.63;4439497;32;20061;-73
2021/06/13 02:31:10;;;;;;;3.95;1.65;;;;;;;17.17;57.53;101743.72;4439006;32;20076;-73
2021/06/13 02:33:42;;;;;;;4.03;1.40;;;;;;;17.19;57.51;101741.25;4439699;32;20083;-74
2021/06/13 02:36:09;;;;;;;4.45;1.55;;;;;;;17.14;57.87;101738.16;4437750;32;20037;-74
2021/06/13 02:38:35;;;;;;;4.15;1.92;;;;;;;17.07;58.39;101744.91;4435760;32;20076;-74
2021/06/13 02:41:01;;;;;;;3.62;1.50;;;;;;;17.03;58.49;101758.44;4428348;32;20029;-73
2021/06/13 02:43:27;;;;;;;5.95;1.42;;;;;;;17.03;58.57;101755.59;4428115;32;20161;-73
2021/06/13 02:45:53;;;;;;;3.33;1.30;;;;;;;16.99;58.83;101754.12;4427641;32;20033;-72
2021/06/13 02:48:19;;;;;;;3.42;1.60;;;;;;;16.99;58.54;101759.81;4429783;32;20101;-73
2021/06/13 02:50:47;;;;;;;3.78;1.50;;;;;;;16.97;58.68;101759.50;4426921;32;20053;-72
2021/06/13 02:58:41;;;;;;;3.72;1.85;;;;;;;17.08;59.08;101765.59;4445569;31;682438;-73
2021/06/13 03:01:08;;;;;;;5.75;1.70;;;;;;;16.60;60.46;101761.12;4450151;32;20539;-73
2021/06/13 03:03:35;;;;;;;3.12;1.75;;;;;;;16.61;60.60;101761.91;4436825;32;20069;-73
2021/06/13 03:06:09;;;;;;;2.87;1.90;;;;;;;16.62;60.84;101757.81;4442814;32;20422;-74
2021/06/13 03:08:35;;;;;;;3.47;1.70;;;;;;;16.57;61.21;101755.56;4438111;32;20041;-73
2021/06/13 03:11:02;;;;;;;3.12;1.60;;;;;;;16.64;61.21;101749.63;4439618;32;20044;-73
2021/06/13 03:13:30;;;;;;;3.25;1.27;;;;;;;16.69;61.15;101749.84;4440999;32;20078;-73
2021/06/13 03:15:58;;;;;;;2.87;1.85;;;;;;;16.73;61.22;101750.56;4438496;32;20072;-73
2021/06/13 03:18:27;;;;;;;4.53;1.50;;;;;;;16.82;61.06;101755.53;4439348;32;20049;-74
2021/06/13 03:20:54;;;;;;;4.93;1.80;;;;;;;16.90;60.80;101749.16;4441665;32;20077;-73
2021/06/13 03:23:21;;;;;;;2.90;1.85;;;;;;;16.89;60.92;101738.22;4440145;32;20025;-73
2021/06/13 03:25:48;;;;;;;5.50;1.87;;;;;;;16.93;60.82;101738.91;4437001;32;20041;-73
2021/06/13 03:28:17;;;;;;;3.47;1.58;;;;;;;16.94;60.73;101740.50;4441090;32;20030;-73
2021/06/13 03:30:43;;;;;;;2.92;1.80;;;;;;;16.98;60.72;101739.13;4439888;32;20075;-73
2021/06/13 03:33:10;;;;;;;6.80;2.35;;;;;;;17.02;60.71;101745.47;4440662;32;20422;-73
2021/06/13 03:35:36;;;;;;;4.22;1.90;;;;;;;17.01;60.87;101734.56;4439812;32;20185;-74
2021/06/13 03:38:03;;;;;;;6.30;2.00;;;;;;;17.03;60.89;101738.53;4439368;32;20033;-74
2021/06/13 03:40:30;;;;;;;5.53;1.75;;;;;;;17.02;61.04;101736.94;4438893;32;20089;-73
2021/06/13 03:42:57;;;;;;;4.80;1.70;;;;;;;17.09;61.18;101733.84;4440424;32;20058;-74
2021/06/13 03:45:25;;;;;;;3.35;1.90;;;;;;;17.14;61.15;101729.63;4440148;32;20033;-74
2021/06/13 03:47:53;;;;;;;3.25;1.67;;;;;;;17.25;60.75;101730.06;4440470;32;20041;-74
2021/06/13 03:50:20;;;;;;;6.90;2.15;;;;;;;17.32;60.60;101732.63;4436070;32;20092;-74
2021/06/13 03:52:46;;;;;;;3.35;1.73;;;;;;;17.33;60.82;101745.59;4439953;32;20145;-74
2021/06/13 03:55:12;;;;;;;3.35;1.83;;;;;;;17.40;60.64;101742.53;4439675;32;20092;-73
2021/06/13 03:57:44;;;;;;;4.12;2.15;;;;;;;17.46;60.82;101744.31;4439610;32;20046;-74
2021/06/13 04:00:12;;;;;;;5.28;1.98;;;;;;;17.51;60.66;101746.59;4438781;32;20041;-75
2021/06/13 04:02:41;;;;;;;6.05;1.80;;;;;;;17.57;60.61;101741.91;4438564;32;20071;-73
2021/06/13 04:05:09;;;;;;;7.57;1.83;;;;;;;17.63;60.40;101737.19;4438237;32;20538;-74
2021/06/13 04:07:38;;;;;;;3.87;1.87;;;;;;;17.71;60.31;101737.72;4439655;32;20175;-74
2021/06/13 04:10:04;;;;;;;6.15;2.10;;;;;;;17.78;60.31;101732.56;4430374;32;20033;-74
2021/06/13 04:12:32;;;;;;;4.43;1.77;;;;;;;17.81;60.36;101727.97;4430785;32;20077;-73
2021/06/13 04:15:00;;;;;;;4.12;1.75;;;;;;;17.85;60.69;101737.19;4424525;32;20431;-74
2021/06/13 04:17:26;;;;;;;3.80;1.92;;;;;;;17.91;61.41;101735.31;4423612;32;20118;-74
2021/06/13 04:19:53;;;;;;;8.32;2.12;;;;;;;18.01;61.29;101739.81;4427600;32;20029;-74
2021/06/13 04:22:21;;;;;;;4.35;1.95;;;;;;;18.12;61.09;101747.94;4427839;32;20064;-73
2021/06/13 04:24:48;;;;;;;5.82;2.20;;;;;;;18.18;60.78;101751.78;4429606;32;20156;-73
2021/06/13 04:27:18;;;;;;;5.40;1.67;;;;;;;18.20;60.85;101743.56;4431157;32;20041;-74
2021/06/13 04:29:44;;;;;;;6.62;2.00;;;;;;;18.33;60.38;101747.09;4430231;32;20092;-74
2021/06/13 04:32:11;;;;;;;4.87;1.83;;;;;;;18.38;60.29;101744.47;4428577;32;20097;-74
2021/06/13 04:34:37;;;;;;;3.90;1.87;;;;;;;18.43;60.24;101758.09;4428641;32;20057;-74
2021/06/13 04:37:04;;;;;;;6.35;2.20;;;;;;;18.49;60.18;101759.09;4428944;32;20042;-74
2021/06/13 04:39:30;;;;;;;2.33;1.60;;;;;;;18.54;59.91;101760.53;4429207;32;20386;-74
2021/06/13 04:41:56;;;;;;;6.30;2.22;;;;;;;18.58;59.29;101755.47;4423121;32;20113;-74
2021/06/13 04:44:22;;;;;;;4.05;1.80;;;;;;;18.61;58.86;101757.38;4427492;32;20082;-74
2021/06/13 04:46:47;;;;;;;4.62;2.17;;;;;;;18.60;58.84;101764.34;4426639;32;20116;-74
2021/06/13 04:49:13;;;;;;;3.05;1.87;;;;;;;18.70;58.44;101769.63;4430298;32;20063;-73
2021/06/13 04:51:42;;;;;;;3.45;1.50;;;;;;;18.75;58.06;101771.84;4427941;32;20613;-74
2021/06/13 04:54:22;;;;;;;7.90;2.10;;;;;;;18.82;57.66;101776.47;4419686;32;20056;-74
2021/06/13 04:59:32;;;;;;;5.43;2.05;;;;;;;19.09;57.33;101779.41;4440627;31;747757;-73
2021/06/13 05:01:59;;;;;;;4.93;2.00;;;;;;;19.06;57.18;101780.34;4446517;32;20124;-76
2021/06/13 05:04:25;;;;;;;4.82;1.80;;;;;;;19.22;56.85;101768.63;4438662;32;20403;-73
2021/06/13 05:06:50;;;;;;;3.87;1.75;;;;;;;19.30;56.74;101778.53;4440936;32;20069;-74
2021/06/13 05:09:16;;;;;;;5.95;2.28;;;;;;;19.39;56.63;101775.69;4440448;32;20141;-74
2021/06/13 05:11:42;;;;;;;7.57;2.00;;;;;;;19.48;56.41;101776.47;4437408;32;20041;-73
2021/06/13 05:14:08;;;;;;;5.30;1.98;;;;;;;19.51;56.64;101777.56;4441296;32;20073;-74
2021/06/13 05:16:34;;;;;;;4.47;1.40;;;;;;;19.63;56.43;101771.69;4440176;32;20153;-74
2021/06/13 05:18:59;;;;;;;3.45;1.80;;;;;;;19.72;56.47;101776.59;4438214;32;20050;-74
2021/06/13 05:21:25;;;;;;;3.22;1.80;;;;;;;19.76;56.58;101777.25;4438920;32;20077;-74
2021/06/13 05:23:51;;;;;;;4.00;1.87;;;;;;;19.78;56.83;101774.69;4439833;32;20073;-73
2021/06/13 05:26:17;;;;;;;5.68;2.12;;;;;;;19.93;56.91;101769.94;4443470;32;20081;-74
2021/06/13 05:28:42;;;;;;;7.85;2.37;;;;;;;19.95;57.01;101770.25;4439343;32;20068;-73
2021/06/13 05:31:08;;;;;;;4.15;2.10;;;;;;;19.96;57.08;101768.16;4439611;32;20102;-74
2021/06/13 05:33:34;;;;;;;2.50;1.50;;;;;;;20.07;56.95;101766.41;4439925;32;20077;-74
2021/06/13 05:36:01;;;;;;;4.03;1.80;;;;;;;20.11;56.81;101769.91;4442256;32;20081;-73
2021/06/13 05:38:28;;;;;;;2.85;1.70;;;;;;;20.22;56.66;101772.28;4439261;32;20077;-73
2021/06/13 05:40:54;;;;;;;2.65;1.62;;;;;;;20.18;56.79;101772.44;4439112;32;20045;-74
2021/06/13 05:43:20;;;;;;;4.45;2.17;;;;;;;20.27;56.66;101772.41;4441641;32;20411;-74
2021/06/13 05:45:47;;;;;;;2.75;1.67;;;;;;;20.37;56.47;101778.91;4440716;32;20085;-74
2021/06/13 05:48:13;;;;;;;3.65;1.95;;;;;;;20.46;56.36;101773.16;4439457;32;20421;-74
2021/06/13 05:50:40;;;;;;;3.42;2.03;;;;;;;20.57;56.15;101774.22;4436783;32;20159;-74
2021/06/13 05:53:07;;;;;;;5.80;1.67;;;;;;;20.62;56.04;101775.63;4442057;32;20093;-73
2021/06/13 05:55:33;;;;;;;3.45;1.80;;;;;;;20.73;55.88;101773.81;4439433;32;20093;-73
2021/06/13 05:58:00;;;;;;;4.55;2.00;;;;;;;20.83;55.59;101768.87;4440422;32;20339;-73
2021/06/13 06:00:28;;;;;;;4.95;2.33;;;;;;;20.91;55.30;101772.94;4436349;32;20125;-74
2021/06/13 06:02:54;;;;;;;4.55;1.70;;;;;;;21.07;54.97;101779.06;4438795;32;20101;-74
2021/06/13 06:05:22;;;;;;;2.03;1.48;;;;;;;21.16;54.83;101776.16;4439493;32;20025;-74
2021/06/13 06:07:49;;;;;;;2.78;1.90;;;;;;;21.31;54.67;101774.12;4439601;32;20112;-74
2021/06/13 06:10:16;;;;;;;3.15;1.42;;;;;;;21.35;54.28;101768.22;4430409;32;20156;-74
2021/06/13 06:12:44;;;;;;;4.07;1.85;;;;;;;21.51;54.13;101767.78;4425589;32;20162;-74
2021/06/13 06:15:13;;;;;;;3.65;1.62;;;;;;;21.51;54.00;101768.56;4429123;32;20038;-74
2021/06/13 06:17:39;;;;;;;4.35;1.98;;;;;;;21.67;53.72;101773.06;4428596;32;20100;-74
2021/06/13 06:20:07;;;;;;;5.60;1.60;;;;;;;21.73;53.46;101778.87;4428707;32;20107;-74
2021/06/13 06:22:34;;;;;;;3.58;1.60;;;;;;;21.71;54.06;101776.50;4427694;32;20045;-74
2021/06/13 06:25:00;;;;;;;6.00;2.10;;;;;;;21.73;54.04;101773.97;4430415;32;20677;-74
2021/06/13 06:27:25;;;;;;;6.65;1.83;;;;;;;21.81;54.13;101778.03;4430143;32;20053;-74
2021/06/13 06:29:51;;;;;;;9.18;2.37;;;;;;;21.82;54.20;101779.66;4427537;32;20025;-74
2021/06/13 06:32:17;;;;;;;5.03;1.90;;;;;;;21.95;54.04;101785.06;4428669;32;20084;-75
2021/06/13 06:34:43;;;;;;;5.00;2.08;;;;;;;21.96;54.18;101780.94;4430280;32;20061;-74
2021/06/13 06:37:09;;;;;;;2.85;1.75;;;;;;;22.06;53.24;101779.56;4429910;32;20069;-74
2021/06/13 06:39:35;;;;;;;5.87;1.73;;;;;;;21.92;53.25;101783.19;4428325;32;20055;-74
2021/06/13 06:42:00;;;;;;;4.53;1.98;;;;;;;21.81;53.76;101780.91;4424672;32;20069;-73
2021/06/13 06:44:26;;;;;;;2.85;1.33;;;;;;;21.84;53.92;101784.88;4427827;32;20128;-74
2021/06/13 06:46:52;;;;;;;4.05;1.70;;;;;;;21.95;53.37;101782.22;4430971;32;20117;-74
2021/06/13 06:49:18;;;;;;;4.30;1.62;;;;;;;22.03;53.31;101786.28;4427677;32;21096;-74
2021/06/13 06:51:44;;;;;;;4.45;2.28;;;;;;;22.00;53.32;101785.19;4428720;32;20094;-73
2021/06/13 06:54:09;;;;;;;3.30;1.70;;;;;;;22.05;53.18;101787.38;4427513;32;20042;-74
2021/06/13 06:56:35;;;;;;;3.08;1.85;;;;;;;22.17;53.07;101780.56;4425455;32;20315;-74
2021/06/13 06:59:01;;;;;;;3.28;1.73;;;;;;;22.20;53.16;101782.44;4428072;32;20049;-73
2021/06/13 07:01:27;;;;;;;3.78;2.22;;;;;;;22.33;52.68;101788.66;4430543;32;20104;-73
2021/06/13 07:03:53;;;;;;;2.87;1.92;;;;;;;22.31;52.69;101791.25;4428576;32;20066;-73
2021/06/13 07:06:19;;;;;;;4.82;1.75;;;;;;;22.38;52.65;101796.56;4420734;32;20069;-73
2021/06/13 07:08:44;;;;;;;4.15;1.65;;;;;;;22.46;52.43;101797.75;4427042;32;20050;-74
2021/06/13 07:11:10;;;;;;;3.50;2.08;;;;;;;22.46;52.75;101802.69;4427203;32;20068;-74
2021/06/13 07:13:36;;;;;;;2.87;1.70;;;;;;;22.62;52.22;101805.88;4428391;32;20203;-74
2021/06/13 07:16:03;;;;;;;3.53;1.87;;;;;;;22.73;51.95;101800.31;4427442;32;20068;-73
2021/06/13 07:18:29;;;;;;;3.78;1.95;;;;;;;22.81;52.10;101800.69;4427265;32;20053;-73
2021/06/13 07:20:55;;;;;;;5.80;1.87;;;;;;;22.85;51.67;101801.28;4427742;32;20622;-73
2021/06/13 07:23:21;;;;;;;2.83;1.62;;;;;;;22.94;51.39;101804.81;4425459;32;20046;-73
2021/06/13 07:25:47;;;;;;;4.95;2.10;;;;;;;23.09;51.23;101802.69;4428724;32;20062;-74
2021/06/13 07:28:15;;;;;;;2.53;1.83;;;;;;;23.11;51.35;101802.97;4428623;32;20073;-73
2021/06/13 07:30:41;;;;;;;7.87;2.08;;;;;;;23.29;51.11;101799.87;4426077;32;20440;-74
2021/06/13 07:33:08;;;;;;;5.10;2.10;;;;;;;23.36;51.04;101801.53;4431181;32;20067;-75
2021/06/13 07:35:34;;;;;;;3.50;1.70;;;;;;;23.55;50.54;101802.81;4427028;32;20045;-72
2021/06/13 07:38:01;;;;;;;6.75;2.28;;;;;;;23.69;50.24;101798.28;4428142;32;20067;-75
2021/06/13 07:40:30;;;;;;;8.07;2.30;;;;;;;23.72;50.04;101809.59;4426506;32;20081;-73
2021/06/13 07:42:56;;;;;;;6.80;2.08;;;;;;;23.70;50.17;101814.22;4427651;32;20141;-74
2021/06/13 07:45:23;;;;;;;3.40;1.83;;;;;;;23.84;49.79;101801.88;4427674;32;20418;-73
2021/06/13 07:47:50;;;;;;;8.57;2.22;;;;;;;24.01;49.59;101808.59;4428684;32;20402;-74
2021/06/13 07:50:17;;;;;;;2.40;1.70;;;;;;;24.10;49.55;101794.88;4427643;32;20098;-72
2021/06/13 07:52:44;;;;;;;2.80;1.42;;;;;;;24.36;49.13;101792.75;4426732;32;20077;-73
2021/06/13 07:55:11;;;;;;;4.15;2.20;;;;;;;24.54;48.42;101798.16;4427742;32;20074;-73
2021/06/13 07:57:39;;;;;;;4.05;1.95;;;;;;;24.83;47.97;101797.09;4426732;32;20045;-74
2021/06/13 08:00:10;;;;;;;3.47;1.65;;;;;;;25.00;47.62;101793.03;4428835;32;20026;-73
2021/06/13 08:02:37;;;;;;;4.15;2.08;;;;;;;25.33;46.78;101801.09;4429543;32;20426;-74
2021/06/13 08:05:08;;;;;;;4.20;1.85;;;;;;;25.46;46.54;101801.41;4423960;32;20081;-73
2021/06/13 08:07:34;;;;;;;7.15;1.92;;;;;;;25.83;45.97;101802.09;4427391;32;20069;-74
2021/06/13 08:10:00;;;;;;;4.68;1.90;;;;;;;26.02;45.49;101796.69;4425148;32;20056;-74
2021/06/13 08:12:26;;;;;;;8.70;1.98;;;;;;;26.53;44.35;101793.31;4426413;32;20073;-74
2021/06/13 08:14:51;;;;;;;6.68;2.00;;;;;;;26.91;43.63;101795.44;4426759;32;20071;-74
2021/06/13 08:17:17;;;;;;;5.22;1.70;;;;;;;27.41;42.44;101804.78;4427621;32;20033;-74
2021/06/13 08:19:43;;;;;;;3.60;1.65;;;;;;;27.84;41.40;101794.34;4426497;32;20034;-74
2021/06/13 08:22:11;;;;;;;2.05;1.40;;;;;;;28.28;40.51;101796.16;4426990;32;20631;-74
2021/06/13 08:24:37;;;;;;;4.70;1.90;;;;;;;28.59;39.74;101805.19;4425824;32;20458;-74
2021/06/13 08:27:04;;;;;;;5.80;2.08;;;;;;;28.68;39.55;101801.94;4426771;32;20076;-74
2021/06/13 08:29:30;;;;;;;5.10;2.20;;;;;;;28.92;39.10;101813.56;4425631;32;20050;-73
2021/06/13 08:31:56;;;;;;;6.78;2.08;;;;;;;29.05;38.86;101807.13;4426226;32;20137;-74
2021/06/13 08:34:22;;;;;;;3.58;1.45;;;;;;;29.28;38.40;101805.59;4429846;32;20060;-74
2021/06/13 08:36:48;;;;;;;3.17;1.65;;;;;;;29.44;38.04;101813.31;4426693;32;20076;-74
2021/06/13 08:39:14;;;;;;;5.75;1.70;;;;;;;29.34;38.33;101802.59;4427718;32;20064;-74
2021/06/13 08:41:40;;;;;;;4.82;1.90;;;;;;;29.12;38.61;101808.66;4428247;32;20029;-74
2021/06/13 08:44:07;;;;;;;5.90;2.17;;;;;;;29.17;38.41;101799.91;4426345;32;20147;-74
2021/06/13 08:46:36;;;;;;;5.78;2.37;;;;;;;29.19;38.43;101802.25;4423156;32;21209;-74
2021/06/13 08:49:03;;;;;;;8.13;1.80;;;;;;;29.55;38.02;101801.56;4425549;32;20424;-74
2021/06/13 08:51:29;;;;;;;6.37;2.28;;;;;;;29.81;37.55;101804.69;4427414;32;20079;-74
2021/06/13 08:53:54;;;;;;;5.10;1.77;;;;;;;29.83;37.19;101807.03;4424239;32;20414;-74
2021/06/13 08:56:22;;;;;;;2.62;1.42;;;;;;;29.83;36.68;101804.13;4425928;32;20073;-74
2021/06/13 08:58:50;;;;;;;4.15;1.42;;;;;;;29.87;36.87;101793.78;4425878;32;20129;-75
2021/06/13 09:01:15;;;;;;;2.78;1.35;;;;;;;29.76;36.68;101793.16;4424979;32;20026;-74
2021/06/13 09:03:42;;;;;;;3.58;1.48;;;;;;;29.62;37.14;101782.78;4425954;32;20142;-74
2021/06/13 09:06:09;;;;;;;4.70;1.50;;;;;;;29.54;37.36;101785.47;4425247;32;20072;-75
2021/06/13 09:08:36;;;;;;;7.45;1.62;;;;;;;29.27;38.12;101795.31;4424804;32;20026;-75
2021/06/13 09:11:03;;;;;;;4.57;1.60;;;;;;;28.58;39.31;101789.13;4425958;32;20200;-74
2021/06/13 09:13:30;;;;;;;2.58;1.58;;;;;;;28.73;38.99;101788.72;4427261;32;20083;-75
2021/06/13 09:15:59;;;;;;;7.80;1.70;;;;;;;28.74;39.08;101796.09;4423935;32;20486;-74
2021/06/13 09:18:32;;;;;;;4.55;1.70;;;;;;;29.06;38.70;101784.75;4426062;32;20160;-74
2021/06/13 09:20:58;;;;;;;2.47;1.25;;;;;;;29.07;38.54;101790.00;4425806;32;20042;-74
2021/06/13 09:23:27;;;;;;;3.22;1.50;;;;;;;28.93;38.82;101788.28;4426619;32;20070;-74
2021/06/13 09:26:12;;;;;;;2.25;1.50;;;;;;;28.96;38.83;101787.19;4427207;32;20421;-74
2021/06/13 09:28:41;;;;;;;3.80;1.75;;;;;;;28.52;39.67;101791.28;4425835;32;20045;-74
2021/06/13 09:31:15;;;;;;;3.87;1.27;;;;;;;28.26;40.27;101790.16;4424445;32;20070;-75
2021/06/13 09:33:42;;;;;;;4.23;1.70;;;;;;;28.71;39.06;101786.37;4425769;32;20073;-74
2021/06/13 09:36:09;;;;;;;4.87;1.23;;;;;;;29.55;37.96;101780.47;4426965;32;20523;-74
2021/06/13 09:38:44;;;;;;;2.58;1.00;;;;;;;29.65;36.68;101787.47;4422058;32;20038;-75
2021/06/13 09:46:29;;;;;;;5.35;1.30;;;;;;;29.30;37.38;101794.25;4444190;31;671350;-74
2021/06/13 09:49:02;;;;;;;2.25;0.93;;;;;;;29.30;37.38;101794.25;4453202;32;20485;-74
2021/06/13 09:51:34;;;;;;;2.80;1.42;;;;;;;29.13;37.44;101796.53;4446435;32;20072;-74
2021/06/13 09:54:05;;;;;;;2.65;1.05;;;;;;;29.37;37.09;101796.53;4455373;32;20101;-74
2021/06/13 10:06:58;;;;;;;1.55;0.85;;;;;;;29.89;36.00;101796.13;4427662;31;674819;-75
2021/06/13 10:09:36;;;;;;;1.15;0.65;;;;;;;29.89;36.00;101796.13;4441498;32;20090;-74
2021/06/13 10:12:05;;;;;;;2.72;0.85;;;;;;;29.41;36.43;101787.50;4442655;32;20099;-74
2021/06/13 10:14:31;;;;;;;0.82;0.60;;;;;;;29.38;36.79;101788.59;4440971;32;20099;-74
2021/06/13 10:16:57;;;;;;;2.03;0.70;;;;;;;29.45;36.43;101793.78;4442806;32;20090;-74
2021/06/13 10:19:26;;;;;;;1.70;0.62;;;;;;;29.14;37.31;101788.63;4442507;32;20512;-74
2021/06/13 10:21:55;;;;;;;1.37;0.62;;;;;;;29.21;37.08;101791.69;4442723;32;20074;-74
2021/06/13 10:26:58;;;;;;;3.92;0.60;;;;;;;30.15;35.36;101791.25;4442920;31;688044;-73
2021/06/13 10:29:27;;;;;;;1.17;0.47;;;;;;;30.15;35.36;101791.25;4455956;32;20083;-76
2021/06/13 10:31:56;;;;;;;1.20;0.40;;;;;;;29.72;35.64;101789.75;4454758;32;20786;-74
2021/06/13 10:34:23;;;;;;;3.97;0.80;;;;;;;29.83;35.51;101784.59;4452049;32;20527;-74
2021/06/13 10:36:51;;;;;;;1.10;0.65;;;;;;;29.86;35.56;101777.69;4453733;32;20486;-74
2021/06/13 10:39:20;;;;;;;1.50;1.10;;;;;;;29.54;36.03;101796.31;4453441;32;20140;-74
2021/06/13 10:41:46;;;;;;;0.70;0.60;;;;;;;29.32;36.45;101770.50;4455391;32;20465;-73
2021/06/13 10:44:14;;;;;;;1.85;0.62;;;;;;;29.07;36.79;101775.50;4454450;32;20088;-74
2021/06/13 10:46:43;;;;;;;2.40;1.00;;;;;;;29.33;36.23;101772.06;4454964;32;20064;-74
2021/06/13 11:00:26;;;;;;;1.83;1.00;;;;;;;31.02;33.83;101775.81;4437849;31;686749;-74
2021/06/13 11:02:57;;;;;;;1.73;1.20;;;;;;;31.02;33.83;101775.81;4439879;32;20059;-73
2021/06/13 11:05:44;;;;;;;1.87;0.80;;;;;;;30.58;34.10;101779.47;4439062;32;20528;-73
2021/06/13 11:08:11;;;;;;;3.28;1.08;;;;;;;31.40;32.94;101770.56;4438886;32;20102;-73
2021/06/13 11:10:38;;;;;;;1.98;1.10;;;;;;;30.94;33.67;101771.19;4438573;32;20136;-74
2021/06/13 11:13:09;;;;;;;3.42;1.10;;;;;;;31.19;33.19;101770.44;4439623;32;20096;-74
2021/06/13 11:26:04;;;;;;;1.60;0.82;;;;;;;31.30;33.28;101755.72;4444581;31;663999;-74
2021/06/13 11:33:48;;;;;;;1.83;1.20;;;;;;;31.03;33.69;101753.31;4449493;31;668224;-73
2021/06/13 11:41:35;;;;;;;1.58;1.00;;;;;;;31.36;33.19;101744.75;4432119;31;686910;-73
2021/06/13 11:44:04;;;;;;;2.25;0.90;;;;;;;31.36;33.19;101744.75;4447179;32;20068;-73
2021/06/13 11:49:14;;;;;;;2.60;1.00;;;;;;;31.61;32.67;101746.06;4431226;31;694913;-74
2021/06/13 11:52:00;;;;;;;5.05;1.40;;;;;;;31.49;32.61;101741.81;4446167;32;20518;-74
2021/06/13 11:54:44;;;;;;;4.40;1.10;;;;;;;31.04;33.44;101746.94;4443945;32;20104;-73
2021/06/13 11:59:48;;;;;;;1.60;0.80;;;;;;;31.62;32.87;101741.78;4428083;31;674750;-73
2021/06/13 12:02:19;;;;;;;2.58;1.02;;;;;;;31.62;32.87;101741.78;4450065;32;20076;-74
2021/06/13 12:04:46;;;;;;;2.58;1.00;;;;;;;31.25;33.02;101736.22;4446294;32;20122;-74
2021/06/13 12:07:15;;;;;;;4.62;1.20;;;;;;;31.27;33.12;101732.75;4448745;32;20174;-74
2021/06/13 12:09:41;;;;;;;3.72;1.17;;;;;;;31.33;33.00;101730.53;4445529;32;20076;-73
2021/06/13 12:12:09;;;;;;;2.95;1.35;;;;;;;31.58;32.74;101734.75;4446261;32;20061;-73
2021/06/13 12:14:40;;;;;;;4.93;1.30;;;;;;;31.76;32.15;101731.69;4445538;32;20397;-74
2021/06/13 12:17:26;;;;;;;3.80;1.67;;;;;;;31.84;32.25;101726.00;4451179;32;20056;-73
2021/06/13 12:20:01;;;;;;;1.52;1.00;;;;;;;31.92;31.80;101733.47;4446376;32;20598;-74
2021/06/13 12:22:34;;;;;;;3.28;1.12;;;;;;;31.67;32.29;101732.16;4445330;32;20037;-73
2021/06/13 12:30:26;;;;;;;2.47;1.00;;;;;;;32.19;31.72;101729.09;4444218;31;686443;-74
2021/06/13 12:33:05;;;;;;;3.78;1.25;;;;;;;32.19;31.72;101729.09;4456479;32;20025;-73
2021/06/13 12:40:50;;;;;;;2.78;1.25;;;;;;;32.63;31.51;101720.59;4439152;31;680704;-75
2021/06/13 12:43:31;;;;;;;2.87;1.02;;;;;;;32.28;31.60;101714.00;4454686;32;20059;-75
2021/06/13 12:45:57;;;;;;;2.65;1.08;;;;;;;32.21;31.51;101711.81;4455713;32;20192;-74
2021/06/13 12:48:23;;;;;;;2.50;1.17;;;;;;;32.06;31.77;101702.16;4454655;32;20513;-74
2021/06/13 12:50:49;;;;;;;3.85;0.90;;;;;;;31.94;31.83;101706.69;4454254;32;20041;-76